createdAt,value
2018-08-11T00:00:11.375Z,98574.44
2018-08-11T00:02:39.655Z,98575.42
2018-08-11T00:05:07.938Z,98576.09
2018-08-11T00:07:36.695Z,98569.55
2018-08-11T00:10:05.990Z,98572.47
2018-08-11T00:12:34.303Z,98566.95
2018-08-11T00:15:02.618Z,98568.02
2018-08-11T00:17:30.962Z,98567.44
2018-08-11T00:19:59.196Z,98562.09
2018-08-11T00:22:27.404Z,98567.38
2018-08-11T00:24:55.630Z,98567.38
2018-08-11T00:27:28.351Z,98567.75
2018-08-11T00:29:56.683Z,98576.30
2018-08-11T00:32:24.948Z,98567.84
2018-08-11T00:34:53.294Z,98568.75
2018-08-11T00:37:21.599Z,98570.59
2018-08-11T00:39:49.899Z,98566.50
2018-08-11T00:42:18.327Z,98567.78
2018-08-11T00:44:46.559Z,98578.55
2018-08-11T00:47:14.859Z,98574.15
2018-08-11T00:49:43.211Z,98577.55
2018-08-11T00:52:11.458Z,98578.83
2018-08-11T00:54:40.016Z,98579.56
2018-08-11T00:57:08.311Z,98580.95
2018-08-11T00:59:36.492Z,98579.32
2018-08-11T01:02:04.722Z,98575.45
2018-08-11T01:04:32.986Z,98578.83
2018-08-11T01:07:02.634Z,98570.45
2018-08-11T01:09:30.914Z,98577.67
2018-08-11T01:11:59.196Z,98574.72
2018-08-11T01:14:27.395Z,98578.84
2018-08-11T01:16:55.748Z,98580.34
2018-08-11T01:19:23.939Z,98584.42
2018-08-11T01:21:52.143Z,98584.83
2018-08-11T01:24:20.363Z,98583.52
2018-08-11T01:26:48.805Z,98584.78
2018-08-11T01:29:17.003Z,98585.95
2018-08-11T01:31:45.202Z,98586.31
2018-08-11T01:34:13.647Z,98581.75
2018-08-11T01:36:41.894Z,98584.18
2018-08-11T01:39:10.111Z,98589.72
2018-08-11T01:41:38.343Z,98587.25
2018-08-11T01:44:06.560Z,98586.35
2018-08-11T01:46:34.826Z,98585.36
2018-08-11T01:49:03.118Z,98582.81
2018-08-11T01:51:31.434Z,98582.28
2018-08-11T01:53:59.635Z,98586.05
2018-08-11T01:56:27.898Z,98586.89
2018-08-11T01:58:56.082Z,98588.31
2018-08-11T02:01:24.359Z,98581.45
2018-08-11T02:03:52.595Z,98580.51
2018-08-11T02:06:20.838Z,98583.30
2018-08-11T02:08:49.111Z,98579.06
2018-08-11T02:11:17.484Z,98586.04
2018-08-11T02:13:45.599Z,98584.25
2018-08-11T02:16:13.871Z,98591.50
2018-08-11T02:18:42.082Z,98593.81
2018-08-11T02:21:10.263Z,98591.23
2018-08-11T02:23:38.543Z,98592.30
2018-08-11T02:26:06.754Z,98592.45
2018-08-11T02:28:34.955Z,98596.69
2018-08-11T02:31:03.175Z,98594.27
2018-08-11T02:33:31.367Z,98595.66
2018-08-11T02:35:59.559Z,98588.52
2018-08-11T02:38:27.759Z,98592.08
2018-08-11T02:40:56.039Z,98594.00
2018-08-11T02:43:24.347Z,98589.72
2018-08-11T02:45:52.649Z,98592.59
2018-08-11T02:48:20.847Z,98598.48
2018-08-11T02:50:49.052Z,98599.73
2018-08-11T02:53:17.299Z,98595.09
2018-08-11T02:55:45.483Z,98598.23
2018-08-11T02:58:13.682Z,98593.61
2018-08-11T03:00:41.879Z,98597.39
2018-08-11T03:03:10.160Z,98600.38
2018-08-11T03:05:38.418Z,98594.61
2018-08-11T03:08:06.722Z,98597.67
2018-08-11T03:10:34.904Z,98598.52
2018-08-11T03:13:03.110Z,98607.81
2018-08-11T03:15:31.386Z,98600.59
2018-08-11T03:17:59.690Z,98608.85
2018-08-11T03:20:27.964Z,98607.56
2018-08-11T03:22:56.167Z,98614.30
2018-08-11T03:25:24.487Z,98613.61
2018-08-11T03:27:52.715Z,98609.31
2018-08-11T03:30:21.018Z,98615.92
2018-08-11T03:32:49.332Z,98607.70
2018-08-11T03:35:17.573Z,98611.52
2018-08-11T03:37:45.794Z,98610.02
2018-08-11T03:40:13.981Z,98611.06
2018-08-11T03:42:42.802Z,98612.61
2018-08-11T03:45:11.532Z,98610.28
2018-08-11T03:47:42.714Z,98618.18
2018-08-11T03:50:10.931Z,98618.39
2018-08-11T03:52:39.147Z,98626.91
2018-08-11T03:55:07.350Z,98623.66
2018-08-11T03:57:35.563Z,98628.41
2018-08-11T04:00:05.015Z,98628.09
2018-08-11T04:02:33.215Z,98631.91
2018-08-11T04:05:01.447Z,98630.66
2018-08-11T04:07:29.759Z,98624.95
2018-08-11T04:09:57.942Z,98632.38
2018-08-11T04:12:26.143Z,98637.02
2018-08-11T04:14:54.359Z,98637.27
2018-08-11T04:17:26.982Z,98636.34
2018-08-11T04:19:55.162Z,98637.97
2018-08-11T04:22:23.351Z,98644.13
2018-08-11T04:24:51.667Z,98647.48
2018-08-11T04:27:19.902Z,98645.87
2018-08-11T04:29:48.119Z,98649.56
2018-08-11T04:32:16.323Z,98654.11
2018-08-11T04:34:44.590Z,98657.23
2018-08-11T04:37:12.788Z,98651.57
2018-08-11T04:39:40.971Z,98650.97
2018-08-11T04:42:09.241Z,98657.71
2018-08-11T04:44:37.394Z,98657.24
2018-08-11T04:47:05.590Z,98657.23
2018-08-11T04:49:33.788Z,98662.13
2018-08-11T04:52:01.991Z,98662.45
2018-08-11T04:54:30.210Z,98665.49
2018-08-11T04:56:58.411Z,98665.71
2018-08-11T04:59:26.620Z,98673.16
2018-08-11T05:01:54.846Z,98671.07
2018-08-11T05:04:23.036Z,98671.52
2018-08-11T05:06:51.230Z,98677.44
2018-08-11T05:09:19.414Z,98677.66
2018-08-11T05:11:47.602Z,98684.59
2018-08-11T05:14:15.902Z,98670.12
2018-08-11T05:16:44.139Z,98684.52
2018-08-11T05:19:12.328Z,98684.92
2018-08-11T05:21:40.557Z,98687.87
2018-08-11T05:24:09.030Z,98687.61
2018-08-11T05:26:37.288Z,98690.59
2018-08-11T05:29:05.606Z,98694.23
2018-08-11T05:31:33.823Z,98684.86
2018-08-11T05:34:02.033Z,98686.47
2018-08-11T05:36:30.232Z,98689.33
2018-08-11T05:38:58.419Z,98686.41
2018-08-11T05:41:26.667Z,98686.48
2018-08-11T05:43:54.863Z,98689.91
2018-08-11T05:46:23.074Z,98687.14
2018-08-11T05:48:51.291Z,98695.73
2018-08-11T05:51:19.483Z,98695.33
2018-08-11T05:53:47.671Z,98689.56
2018-08-11T05:56:15.954Z,98697.71
2018-08-11T05:58:44.139Z,98701.86
2018-08-11T06:01:12.346Z,98692.61
2018-08-11T06:03:40.530Z,98705.41
2018-08-11T06:06:08.739Z,98705.52
2018-08-11T06:08:36.930Z,98700.71
2018-08-11T06:11:05.535Z,98703.64
2018-08-11T06:13:33.802Z,98702.29
2018-08-11T06:16:02.022Z,98677.50
2018-08-11T06:18:30.487Z,98702.21
2018-08-11T06:20:58.718Z,98709.30
2018-08-11T06:23:26.903Z,98703.89
2018-08-11T06:25:55.122Z,98709.23
2018-08-11T06:28:23.427Z,98702.95
2018-08-11T06:30:51.619Z,98708.95
2018-08-11T06:33:19.872Z,98701.94
2018-08-11T06:35:48.078Z,98702.73
2018-08-11T06:38:16.283Z,98713.34
2018-08-11T06:40:44.530Z,98702.51
2018-08-11T06:43:12.674Z,98706.16
2018-08-11T06:45:40.907Z,98704.76
2018-08-11T06:48:09.095Z,98709.84
2018-08-11T06:50:37.311Z,98712.52
2018-08-11T06:53:05.506Z,98702.56
2018-08-11T06:55:33.805Z,98704.88
2018-08-11T06:58:01.951Z,98708.81
2018-08-11T07:00:30.152Z,98708.13
2018-08-11T07:02:58.342Z,98715.75
2018-08-11T07:05:26.638Z,98716.78
2018-08-11T07:07:54.835Z,98712.45
2018-08-11T07:10:23.039Z,98716.58
2018-08-11T07:12:51.275Z,98712.64
2018-08-11T07:15:19.528Z,98712.13
2018-08-11T07:17:47.703Z,98715.75
2018-08-11T07:20:15.907Z,98713.33
2018-08-11T07:22:44.107Z,98706.02
2018-08-11T07:25:12.318Z,98704.75
2018-08-11T07:27:40.503Z,98712.99
2018-08-11T07:30:08.761Z,98707.12
2018-08-11T07:32:36.915Z,98712.44
2018-08-11T07:35:05.192Z,98713.39
2018-08-11T07:37:33.411Z,98710.30
2018-08-11T07:40:01.674Z,98716.58
2018-08-11T07:42:29.879Z,98712.87
2018-08-11T07:44:58.087Z,98710.00
2018-08-11T07:47:26.344Z,98709.62
2018-08-11T07:49:54.519Z,98708.03
2018-08-11T07:52:24.586Z,98709.05
2018-08-11T07:54:52.828Z,98708.58
2018-08-11T07:57:21.011Z,98709.38
2018-08-11T07:59:49.234Z,98707.47
2018-08-11T08:02:17.462Z,98701.84
2018-08-11T08:04:45.663Z,98707.01
2018-08-11T08:07:13.977Z,98705.37
2018-08-11T08:09:42.179Z,98701.12
2018-08-11T08:12:11.051Z,98700.18
2018-08-11T08:14:39.279Z,98702.66
2018-08-11T08:17:07.475Z,98704.67
2018-08-11T08:19:35.751Z,98702.91
2018-08-11T08:22:03.962Z,98697.84
2018-08-11T08:24:32.360Z,98691.72
2018-08-11T08:27:00.693Z,98684.06
2018-08-11T08:29:28.843Z,98685.75
2018-08-11T08:31:57.143Z,98695.28
2018-08-11T08:34:25.323Z,98685.27
2018-08-11T08:36:53.583Z,98688.41
2018-08-11T08:39:21.778Z,98693.17
2018-08-11T08:41:50.016Z,98686.03
2018-08-11T08:44:18.170Z,98687.11
2018-08-11T08:46:46.375Z,98681.23
2018-08-11T08:49:14.610Z,98685.67
2018-08-11T08:51:42.814Z,98680.25
2018-08-11T08:54:11.006Z,98682.75
2018-08-11T08:56:39.251Z,98676.11
2018-08-11T08:59:07.455Z,98679.83
2018-08-11T09:01:35.666Z,98674.97
2018-08-11T09:04:04.167Z,98672.64
2018-08-11T09:06:32.364Z,98683.09
2018-08-11T09:09:00.562Z,98688.64
2018-08-11T09:11:28.794Z,98680.75
2018-08-11T09:13:56.991Z,98683.33
2018-08-11T09:16:25.227Z,98680.62
2018-08-11T09:18:53.719Z,98671.09
2018-08-11T09:21:21.915Z,98671.86
2018-08-11T09:23:50.143Z,98671.12
2018-08-11T09:26:18.379Z,98675.26
2018-08-11T09:28:46.567Z,98676.16
2018-08-11T09:31:14.787Z,98684.15
2018-08-11T09:33:42.970Z,98677.28
2018-08-11T09:36:11.174Z,98681.80
2018-08-11T09:38:39.397Z,98686.72
2018-08-11T09:41:07.868Z,98677.70
2018-08-11T09:43:36.083Z,98673.70
2018-08-11T09:46:04.411Z,98680.76
2018-08-11T09:48:32.578Z,98672.87
2018-08-11T09:51:00.774Z,98668.90
2018-08-11T09:53:28.963Z,98662.81
2018-08-11T09:55:57.203Z,98661.28
2018-08-11T09:58:25.363Z,98665.34
2018-08-11T10:00:55.391Z,98673.88
2018-08-11T10:03:24.122Z,98664.84
2018-08-11T10:05:52.351Z,98655.94
2018-08-11T10:08:20.559Z,98654.61
2018-08-11T10:10:48.847Z,98654.70
2018-08-11T10:13:17.031Z,98649.91
2018-08-11T10:15:45.238Z,98657.63
2018-08-11T10:18:13.434Z,98658.74
2018-08-11T10:20:41.630Z,98657.47
2018-08-11T10:23:09.849Z,98645.95
2018-08-11T10:25:38.038Z,98648.34
2018-08-11T10:28:06.246Z,98640.91
2018-08-11T10:30:34.453Z,98644.95
2018-08-11T10:33:02.647Z,98645.40
2018-08-11T10:35:30.846Z,98651.34
2018-08-11T10:37:59.166Z,98651.85
2018-08-11T10:40:27.602Z,98646.69
2018-08-11T10:42:55.847Z,98653.02
2018-08-11T10:45:24.163Z,98652.89
2018-08-11T10:47:52.347Z,98650.81
2018-08-11T10:50:20.556Z,98649.12
2018-08-11T10:52:48.909Z,98649.47
2018-08-11T10:55:17.564Z,98654.32
2018-08-11T10:57:45.742Z,98640.18
2018-08-11T11:00:13.991Z,98641.09
2018-08-11T11:02:42.203Z,98646.27
2018-08-11T11:05:10.650Z,98640.30
2018-08-11T11:07:38.915Z,98635.13
2018-08-11T11:10:07.613Z,98635.41
2018-08-11T11:12:35.786Z,98644.81
2018-08-11T11:15:04.470Z,98639.14
2018-08-11T11:17:32.686Z,98632.41
2018-08-11T11:20:00.899Z,98631.49
2018-08-11T11:22:29.178Z,98621.42
2018-08-11T11:24:57.438Z,98618.22
2018-08-11T11:27:25.623Z,98609.73
2018-08-11T11:29:53.827Z,98611.29
2018-08-11T11:32:22.047Z,98614.77
2018-08-11T11:34:50.266Z,98602.03
2018-08-11T11:37:18.547Z,98598.20
2018-08-11T11:39:46.851Z,98600.13
2018-08-11T11:42:15.048Z,98601.47
2018-08-11T11:44:43.315Z,98599.18
2018-08-11T11:47:11.579Z,98609.01
2018-08-11T11:49:39.878Z,98613.20
2018-08-11T11:52:08.198Z,98609.80
2018-08-11T11:54:36.415Z,98608.94
2018-08-11T11:57:04.664Z,98609.07
2018-08-11T11:59:33.011Z,98603.64
2018-08-11T12:02:01.261Z,98594.73
2018-08-11T12:04:29.530Z,98595.22
2018-08-11T12:06:57.798Z,98594.22
2018-08-11T12:09:26.067Z,98598.45
2018-08-11T12:11:54.264Z,98602.02
2018-08-11T12:14:22.663Z,98592.53
2018-08-11T12:16:50.946Z,98595.22
2018-08-11T12:19:19.307Z,98590.41
2018-08-11T12:21:47.562Z,98599.06
2018-08-11T12:24:15.826Z,98595.95
2018-08-11T12:26:44.079Z,98587.48
2018-08-11T12:29:12.687Z,98581.53
2018-08-11T12:31:40.975Z,98587.64
2018-08-11T12:34:09.351Z,98581.27
2018-08-11T12:36:37.931Z,98576.64
2018-08-11T12:39:08.791Z,98575.00
2018-08-11T12:41:37.049Z,98567.50
2018-08-11T12:44:05.299Z,98568.87
2018-08-11T12:46:33.510Z,98571.58
2018-08-11T12:49:01.762Z,98573.30
2018-08-11T12:51:29.990Z,98567.80
2018-08-11T12:53:58.245Z,98559.05
2018-08-11T12:56:26.605Z,98555.22
2018-08-11T12:58:54.842Z,98554.31
2018-08-11T13:01:23.098Z,98556.97
2018-08-11T13:03:51.302Z,98545.69
2018-08-11T13:06:19.698Z,98548.31
2018-08-11T13:08:47.947Z,98556.00
2018-08-11T13:11:16.175Z,98553.81
2018-08-11T13:13:44.367Z,98552.17
2018-08-11T13:16:12.574Z,98552.77
2018-08-11T13:18:40.786Z,98547.91
2018-08-11T13:21:09.018Z,98538.26
2018-08-11T13:23:37.340Z,98533.38
2018-08-11T13:26:05.550Z,98538.45
2018-08-11T13:28:33.739Z,98544.48
2018-08-11T13:31:01.936Z,98539.47
2018-08-11T13:33:30.195Z,98527.37
2018-08-11T13:35:58.507Z,98532.23
2018-08-11T13:38:26.718Z,98539.47
2018-08-11T13:40:54.923Z,98535.25
2018-08-11T13:43:23.107Z,98525.14
2018-08-11T13:45:51.347Z,98522.75
2018-08-11T13:48:19.874Z,98519.66
2018-08-11T13:50:48.234Z,98518.02
2018-08-11T13:53:16.434Z,98516.60
2018-08-11T13:55:44.638Z,98518.12
2018-08-11T13:58:12.825Z,98508.45
2018-08-11T14:00:41.046Z,98510.45
2018-08-11T14:03:09.351Z,98510.02
2018-08-11T14:05:37.542Z,98508.45
2018-08-11T14:08:05.864Z,98506.20
2018-08-11T14:10:34.088Z,98516.52
2018-08-11T14:13:02.267Z,98515.23
2018-08-11T14:15:30.549Z,98514.73
2018-08-11T14:17:58.791Z,98522.25
2018-08-11T14:20:27.002Z,98515.95
2018-08-11T14:22:55.203Z,98518.22
2018-08-11T14:25:23.418Z,98516.11
2018-08-11T14:27:51.610Z,98508.74
2018-08-11T14:30:19.859Z,98507.57
2018-08-11T14:32:48.177Z,98509.19
2018-08-11T14:35:16.331Z,98504.15
2018-08-11T14:37:44.603Z,98514.40
2018-08-11T14:40:12.819Z,98506.19
2018-08-11T14:42:45.551Z,98507.08
2018-08-11T14:45:13.751Z,98512.19
2018-08-11T14:47:41.938Z,98497.96
2018-08-11T14:50:10.219Z,98502.58
2018-08-11T14:52:38.460Z,98495.88
2018-08-11T14:55:06.990Z,98495.79
2018-08-11T14:57:35.188Z,98488.77
2018-08-11T15:00:04.128Z,98482.80
2018-08-11T15:02:32.398Z,98474.25
2018-08-11T15:05:00.751Z,98480.11
2018-08-11T15:07:29.035Z,98474.61
2018-08-11T15:09:57.319Z,98481.30
2018-08-11T15:12:25.510Z,98480.84
2018-08-11T15:14:53.734Z,98476.04
2018-08-11T15:17:21.934Z,98476.57
2018-08-11T15:19:50.179Z,98474.76
2018-08-11T15:22:18.672Z,98479.14
2018-08-11T15:24:46.867Z,98474.74
2018-08-11T15:27:15.127Z,98467.25
2018-08-11T15:29:43.343Z,98466.55
2018-08-11T15:32:11.547Z,98460.45
2018-08-11T15:34:39.807Z,98460.60
2018-08-11T15:37:08.055Z,98465.84
2018-08-11T15:39:36.269Z,98463.51
2018-08-11T15:42:04.543Z,98473.88
2018-08-11T15:44:32.866Z,98470.11
2018-08-11T15:47:01.123Z,98462.81
2018-08-11T15:49:29.375Z,98458.23
2018-08-11T15:51:57.595Z,98457.64
2018-08-11T15:54:25.854Z,98457.36
2018-08-11T15:56:54.010Z,98451.16
2018-08-11T15:59:22.223Z,98452.41
2018-08-11T16:01:50.526Z,98447.44
2018-08-11T16:04:18.735Z,98447.67
2018-08-11T16:06:46.947Z,98443.73
2018-08-11T16:09:15.166Z,98442.08
2018-08-11T16:11:43.402Z,98446.34
2018-08-11T16:14:11.649Z,98446.18
2018-08-11T16:16:39.878Z,98444.38
2018-08-11T16:19:08.063Z,98443.34
2018-08-11T16:21:36.275Z,98443.61
2018-08-11T16:24:04.475Z,98446.48
2018-08-11T16:26:32.683Z,98442.11
2018-08-11T16:29:00.950Z,98448.36
2018-08-11T16:31:29.158Z,98445.98
2018-08-11T16:33:57.363Z,98447.79
2018-08-11T16:36:25.547Z,98445.37
2018-08-11T16:38:53.883Z,98436.08
2018-08-11T16:41:22.283Z,98436.47
2018-08-11T16:43:50.553Z,98442.75
2018-08-11T16:46:18.746Z,98437.91
2018-08-11T16:48:47.146Z,98439.95
2018-08-11T16:51:15.344Z,98439.34
2018-08-11T16:53:43.556Z,98442.73
2018-08-11T16:56:12.686Z,98441.95
2018-08-11T16:58:40.934Z,98448.81
2018-08-11T17:01:09.177Z,98447.80
2018-08-11T17:03:37.392Z,98451.22
2018-08-11T17:06:05.644Z,98456.27
2018-08-11T17:08:33.831Z,98450.41
2018-08-11T17:11:02.083Z,98455.23
2018-08-11T17:13:30.311Z,98452.23
2018-08-11T17:15:58.663Z,98454.45
2018-08-11T17:18:26.883Z,98446.20
2018-08-11T17:20:55.103Z,98448.80
2018-08-11T17:23:23.312Z,98453.81
2018-08-11T17:25:51.529Z,98453.59
2018-08-11T17:28:19.747Z,98451.36
2018-08-11T17:30:47.945Z,98448.31
2018-08-11T17:33:16.175Z,98448.50
2018-08-11T17:35:44.431Z,98451.31
2018-08-11T17:38:12.756Z,98447.82
2018-08-11T17:40:40.992Z,98455.70
2018-08-11T17:43:09.178Z,98453.30
2018-08-11T17:45:37.381Z,98459.50
2018-08-11T17:48:05.691Z,98453.47
2018-08-11T17:50:33.888Z,98455.02
2018-08-11T17:53:02.162Z,98467.41
2018-08-11T17:55:30.466Z,98461.73
2018-08-11T17:57:58.606Z,98457.52
2018-08-11T18:00:26.803Z,98461.91
2018-08-11T18:02:55.147Z,98459.34
2018-08-11T18:05:23.404Z,98462.15
2018-08-11T18:07:51.634Z,98455.68
2018-08-11T18:10:19.863Z,98457.55
2018-08-11T18:12:48.116Z,98455.95
2018-08-11T18:15:16.323Z,98458.33
2018-08-11T18:17:44.770Z,98453.95
2018-08-11T18:20:13.019Z,98458.48
2018-08-11T18:22:41.317Z,98457.86
2018-08-11T18:25:09.615Z,98463.48
2018-08-11T18:27:37.838Z,98460.25
2018-08-11T18:30:06.774Z,98462.82
2018-08-11T18:32:34.978Z,98456.73
2018-08-11T18:35:03.195Z,98461.14
2018-08-11T18:37:31.415Z,98462.28
2018-08-11T18:39:59.793Z,98469.63
2018-08-11T18:42:30.392Z,98469.43
2018-08-11T18:44:58.890Z,98472.53
2018-08-11T18:47:27.123Z,98478.09
2018-08-11T18:49:55.342Z,98477.28
2018-08-11T18:52:23.539Z,98476.83
2018-08-11T18:54:51.862Z,98471.54
2018-08-11T18:57:20.239Z,98480.30
2018-08-11T18:59:48.594Z,98487.38
2018-08-11T19:02:17.008Z,98477.66
2018-08-11T19:04:45.234Z,98483.05
2018-08-11T19:07:13.454Z,98484.97
2018-08-11T19:09:41.715Z,98486.36
2018-08-11T19:12:10.186Z,98480.22
2018-08-11T19:14:38.460Z,98490.15
2018-08-11T19:17:06.736Z,98492.92
2018-08-11T19:19:35.002Z,98496.83
2018-08-11T19:22:03.276Z,98487.00
2018-08-11T19:24:31.499Z,98493.86
2018-08-11T19:26:59.785Z,98498.54
2018-08-11T19:29:28.068Z,98505.03
2018-08-11T19:31:56.363Z,98502.77
2018-08-11T19:34:24.652Z,98501.26
2018-08-11T19:36:52.946Z,98504.60
2018-08-11T19:39:21.336Z,98504.80
2018-08-11T19:41:49.738Z,98513.17
2018-08-11T19:44:18.076Z,98514.25
2018-08-11T19:46:46.437Z,98516.69
2018-08-11T19:49:15.540Z,98514.42
2018-08-11T19:51:43.825Z,98518.45
2018-08-11T19:54:12.186Z,98511.92
2018-08-11T19:56:40.483Z,98509.94
2018-08-11T19:59:08.746Z,98516.96
2018-08-11T20:01:36.983Z,98512.03
2018-08-11T20:04:05.231Z,98511.88
2018-08-11T20:06:33.547Z,98511.03
2018-08-11T20:09:01.754Z,98516.02
2018-08-11T20:11:31.847Z,98517.67
2018-08-11T20:14:00.716Z,98519.52
2018-08-11T20:16:29.024Z,98520.53
2018-08-11T20:18:57.372Z,98523.13
2018-08-11T20:21:25.626Z,98515.53
2018-08-11T20:23:56.267Z,98522.27
2018-08-11T20:26:24.533Z,98521.31
2018-08-11T20:28:52.858Z,98513.17
2018-08-11T20:31:21.107Z,98517.16
2018-08-11T20:33:49.795Z,98518.55
2018-08-11T20:36:18.278Z,98522.84
2018-08-11T20:38:46.869Z,98518.14
2018-08-11T20:41:15.415Z,98515.97
2018-08-11T20:43:48.785Z,98514.02
2018-08-11T20:46:17.018Z,98513.95
2018-08-11T20:48:45.442Z,98518.46
2018-08-11T20:51:13.843Z,98518.34
2018-08-11T20:53:42.110Z,98518.86
2018-08-11T20:56:10.327Z,98523.20
2018-08-11T20:58:38.538Z,98526.09
2018-08-11T21:01:06.898Z,98529.72
2018-08-11T21:03:35.419Z,98524.00
2018-08-11T21:06:04.298Z,98532.69
2018-08-11T21:08:32.919Z,98524.64
2018-08-11T21:11:01.235Z,98527.38
2018-08-11T21:13:29.516Z,98528.98
2018-08-11T21:15:58.035Z,98523.90
2018-08-11T21:18:26.345Z,98529.37
2018-08-11T21:20:54.710Z,98532.61
2018-08-11T21:23:23.015Z,98536.31
2018-08-11T21:25:51.210Z,98529.49
2018-08-11T21:28:19.430Z,98530.23
2018-08-11T21:30:47.676Z,98534.52
2018-08-11T21:33:15.951Z,98538.98
2018-08-11T21:35:44.374Z,98539.15
2018-08-11T21:38:12.855Z,98535.05
2018-08-11T21:40:41.173Z,98537.91
2018-08-11T21:43:09.355Z,98533.84
2018-08-11T21:45:37.617Z,98533.75
2018-08-11T21:48:05.883Z,98532.27
2018-08-11T21:50:34.067Z,98534.82
2018-08-11T21:53:02.391Z,98537.52
2018-08-11T21:55:30.591Z,98529.06
2018-08-11T21:57:58.802Z,98522.12
2018-08-11T22:00:34.541Z,98523.66
2018-08-11T22:03:02.976Z,98524.00
2018-08-11T22:05:31.286Z,98520.91
2018-08-11T22:08:00.532Z,98525.24
2018-08-11T22:10:29.150Z,98528.00
2018-08-11T22:12:57.384Z,98521.27
2018-08-11T22:15:25.623Z,98516.54
2018-08-11T22:17:53.883Z,98517.53
2018-08-11T22:21:25.442Z,98520.50
2018-08-11T22:23:53.739Z,98515.13
2018-08-11T22:26:21.962Z,98510.59
2018-08-11T22:28:50.285Z,98512.06
2018-08-11T22:31:18.571Z,98511.70
2018-08-11T22:33:46.888Z,98516.14
2018-08-11T22:36:15.199Z,98510.31
2018-08-11T22:38:43.518Z,98510.30
2018-08-11T22:41:11.863Z,98517.06
2018-08-11T22:43:40.115Z,98507.87
2018-08-11T22:46:08.503Z,98502.83
2018-08-11T22:48:36.839Z,98505.37
2018-08-11T22:51:05.098Z,98502.60
2018-08-11T22:53:33.354Z,98506.36
2018-08-11T22:56:01.544Z,98499.16
2018-08-11T22:58:29.866Z,98503.22
2018-08-11T23:00:58.159Z,98505.72
2018-08-11T23:03:26.434Z,98503.12
2018-08-11T23:05:54.767Z,98497.41
2018-08-11T23:08:23.030Z,98493.84
2018-08-11T23:10:51.270Z,98499.05
2018-08-11T23:13:19.583Z,98497.11
2018-08-11T23:15:47.851Z,98486.60
2018-08-11T23:18:16.154Z,98472.19
2018-08-11T23:20:44.476Z,98482.40
2018-08-11T23:23:12.775Z,98490.57
2018-08-11T23:25:41.056Z,98480.30
2018-08-11T23:28:09.327Z,98478.35
2018-08-11T23:30:37.843Z,98474.54
2018-08-11T23:33:06.206Z,98479.91
2018-08-11T23:35:34.428Z,98470.41
2018-08-11T23:38:02.703Z,98478.71
2018-08-11T23:40:33.001Z,98465.70
2018-08-11T23:43:01.226Z,98465.03
2018-08-11T23:45:29.411Z,98472.31
2018-08-11T23:47:57.667Z,98461.95
2018-08-11T23:50:25.974Z,98460.45
2018-08-11T23:52:54.306Z,98463.45
2018-08-11T23:55:22.599Z,98465.09
2018-08-11T23:57:50.876Z,98456.03
